Carbon Hill, Illinois
Current Conditions -  °F | °C
As of 4:35 PM on Monday 20 Oct 2014 (Local Time) from KC09 Reporting Station
Scattered Clouds Scattered Clouds  
Wind Chill: 65°   Ceiling: Unl
Heat Index: 65°   Visibility: 10mi
Dew Point: 44°   Wind: 8mph
Humidity: 48%   Direction: 340°NNW
Pressure: 29.89"   Gusts: 16mph
Location:  41.2967°N, 88.2846°W
Report Text: KC09 202135Z AUTO 34007G14KT 10SM SCT050 18/07 A2989 RMK AO2 T01820069
Loading
Personal Weather Stations






























Interactive Weather Map
Tropical Storm Tracking
New forecast layout! Learn more

10-Day Weather Forecast

Advertisements
Track Severe Weather on mobile